首页
METAR-TAF:

METAR-TAF

机场 :

科斯雷國際機場

科斯雷, 密克罗尼西亚群岛

纬度: 05-21N, 经度: 162-57E, 海拔: 3米

当前天气观测

该预报发布于2小时和46分钟前的03:50 UTC
风速12节,风向南转南东
温度 29°C
湿度 84%
气压 1009 hPa
能見度: 16.1公里
多云层高于1800英尺, 塔状积云.
多云层高于13000英尺
阴天层高于30000英尺

METAR: PTSA 250350Z 16012KT 10SM BKN018TCU BKN130 OVC300 29/26 A2979 RMK TCU SW-NW LAST

时间: 17:36 (06:36 UTC)

预报

该预报发布于7小时和13分钟前的23:23 UTC
预报有效从25日的 00点(UTC)到 25日的 24点(UTC)
风速10节,风向东转东南
能見度: 10公里
多云层高于1500英尺
多云层高于13000英尺
附近有阵雨
短暂存在
从 25日的 00点(UTC)到 25日的 02点(UTC)
能見度: 6.4公里
阴天层高于1500英尺
阵雨
从 25日的 0500点(UTC)
风速11节,风向东转东北
能見度: 10公里
多云层高于2000英尺
多云层高于13000英尺
附近有阵雨

TAF: PTSA 242323Z 2500/2524 12010KT P6SM VCSH BKN015 BKN130 TEMPO 2500/2502 4SM SHRA OVC015 FM250500 07011KT P6SM VCSH BKN020 BKN130

超过4000个机场的气象观测和天气预报(METAR&TAF报告)。

可查询的气象台以黄色和红色小点在地图上表示。

将鼠标移到小点上方,可查看气象台名称。

然后点击查看天气观测和预报。

如需切换地图:点击带黑十字的绿色按钮放大地图;点击带横线的绿色按钮缩小地图;或者点击绿色箭头查看邻近地区的地图。


METAR-TAF: